Time;durP1;ratioP1;P1;durP2;ratioP2;P2;SDS_P1;SDS_P2;PMS_P1;PMS_P2;Temp;Humidity;BMP_temperature;BMP_pressure;BME280_temperature;BME280_humidity;BME280_pressure;Samples;Min_cycle;Max_cycle;Signal;HPM_P1;HPM_P2
2021/01/21 00:01:22;;;;;;;11.93;5.63;;;5.60;69.90;;;;;;5095235;28;20032;-71
2021/01/21 00:03:48;;;;;;;12.13;5.82;;;5.50;69.80;;;;;;5076708;28;20031;-71
2021/01/21 00:06:14;;;;;;;10.25;5.00;;;5.50;69.90;;;;;;5068529;28;20050;-70
2021/01/21 00:08:40;;;;;;;11.88;5.78;;;5.50;69.40;;;;;;5074421;28;20028;-70
2021/01/21 00:11:06;;;;;;;10.43;5.70;;;5.50;69.60;;;;;;5074098;28;20029;-71
2021/01/21 00:13:31;;;;;;;10.02;5.40;;;5.40;69.50;;;;;;5074163;28;20081;-72
2021/01/21 00:15:57;;;;;;;10.30;5.80;;;5.40;69.20;;;;;;5056258;28;20016;-70
2021/01/21 00:18:23;;;;;;;9.90;5.38;;;5.40;69.50;;;;;;5073860;28;20054;-70
2021/01/21 00:20:48;;;;;;;10.43;5.80;;;5.40;69.00;;;;;;5073989;28;20044;-71
2021/01/21 00:23:14;;;;;;;10.50;5.88;;;5.30;69.10;;;;;;5074473;28;20032;-70
2021/01/21 00:25:40;;;;;;;15.18;7.50;;;5.30;69.10;;;;;;5074042;28;20025;-70
2021/01/21 00:28:05;;;;;;;9.82;5.68;;;5.30;69.70;;;;;;5073711;28;20028;-71
2021/01/21 00:30:31;;;;;;;12.52;6.07;;;5.30;69.20;;;;;;5073395;28;20043;-71
2021/01/21 00:32:57;;;;;;;10.30;5.55;;;5.30;69.20;;;;;;5073487;28;20029;-70
2021/01/21 00:35:23;;;;;;;10.43;5.68;;;5.20;69.30;;;;;;5074162;28;20028;-71
2021/01/21 00:37:49;;;;;;;12.43;6.32;;;5.20;69.40;;;;;;5073805;28;20025;-71
2021/01/21 00:40:14;;;;;;;11.57;6.65;;;5.30;69.10;;;;;;5074078;28;20024;-71
2021/01/21 00:42:40;;;;;;;12.90;6.45;;;5.30;69.10;;;;;;5055753;28;20161;-71
2021/01/21 00:45:07;;;;;;;13.80;7.22;;;5.40;68.90;;;;;;5073610;28;20098;-70
2021/01/21 00:47:32;;;;;;;15.75;8.43;;;5.30;69.20;;;;;;5073155;28;20099;-70
2021/01/21 00:49:58;;;;;;;13.40;7.38;;;5.30;69.50;;;;;;5073482;28;20064;-70
2021/01/21 00:52:24;;;;;;;16.02;8.18;;;5.30;69.20;;;;;;5073396;28;20478;-70
2021/01/21 00:54:50;;;;;;;14.60;8.07;;;5.30;69.20;;;;;;5055442;28;20028;-71
2021/01/21 00:57:15;;;;;;;15.82;9.00;;;5.30;69.30;;;;;;5073124;28;20397;-70
2021/01/21 00:59:41;;;;;;;15.10;7.93;;;5.30;69.20;;;;;;5055144;28;20082;-69
2021/01/21 01:02:07;;;;;;;14.40;8.05;;;5.30;69.60;;;;;;5072883;28;20032;-70
2021/01/21 01:04:32;;;;;;;16.48;8.52;;;5.30;69.70;;;;;;5072648;28;20032;-70
2021/01/21 01:06:58;;;;;;;15.55;8.75;;;5.30;69.70;;;;;;5086618;28;20030;-70
2021/01/21 01:09:24;;;;;;;15.82;8.20;;;5.20;70.10;;;;;;5093248;28;20059;-70
2021/01/21 01:11:49;;;;;;;16.50;8.65;;;5.20;70.20;;;;;;5075180;28;20024;-70
2021/01/21 01:14:15;;;;;;;15.85;9.07;;;5.10;70.60;;;;;;5093130;28;20024;-70
2021/01/21 01:16:41;;;;;;;16.73;9.20;;;5.10;70.90;;;;;;5092919;28;20024;-70
2021/01/21 01:19:06;;;;;;;15.68;8.65;;;5.00;71.50;;;;;;5075139;28;20411;-70
2021/01/21 01:21:33;;;;;;;16.38;9.43;;;5.00;71.60;;;;;;5075155;28;20031;-71
2021/01/21 01:23:58;;;;;;;17.17;9.07;;;4.90;72.00;;;;;;5075057;28;20024;-72
2021/01/21 01:26:24;;;;;;;19.95;9.73;;;4.90;72.20;;;;;;5092778;28;20028;-71
2021/01/21 01:28:50;;;;;;;17.25;9.32;;;4.80;72.40;;;;;;5093024;28;20031;-71
2021/01/21 01:31:15;;;;;;;18.67;9.82;;;4.80;72.60;;;;;;5092653;28;20032;-72
2021/01/21 01:33:41;;;;;;;18.60;9.95;;;4.80;73.20;;;;;;5092766;28;20028;-70
2021/01/21 01:36:07;;;;;;;18.17;10.30;;;4.80;72.90;;;;;;5074392;28;20016;-72
2021/01/21 01:38:35;;;;;;;17.98;10.25;;;4.70;73.30;;;;;;5092918;28;20079;-72
2021/01/21 01:41:01;;;;;;;17.88;9.77;;;4.70;73.10;;;;;;5092711;28;20388;-71
2021/01/21 01:43:26;;;;;;;17.33;9.88;;;4.70;73.10;;;;;;5074431;28;20115;-71
2021/01/21 01:45:52;;;;;;;19.20;10.65;;;4.70;73.20;;;;;;5092550;28;20099;-71
2021/01/21 01:48:19;;;;;;;15.93;9.63;;;4.70;73.30;;;;;;5070741;28;20017;-72
2021/01/21 01:50:45;;;;;;;16.35;9.68;;;4.60;73.70;;;;;;5072223;28;20443;-71
2021/01/21 01:53:12;;;;;;;19.65;9.50;;;4.60;73.90;;;;;;5072277;28;20024;-71
2021/01/21 01:55:40;;;;;;;22.48;11.30;;;4.50;74.10;;;;;;5071867;28;20019;-71
2021/01/21 01:58:12;;;;;;;18.05;10.02;;;4.40;74.70;;;;;;5053668;28;20486;-71
2021/01/21 02:00:38;;;;;;;21.52;10.82;;;4.50;74.70;;;;;;5071976;28;20039;-71
2021/01/21 02:03:05;;;;;;;17.48;9.52;;;4.30;75.50;;;;;;5054523;28;20390;-70
2021/01/21 02:05:30;;;;;;;15.90;9.90;;;4.30;75.10;;;;;;5073661;28;20024;-71
2021/01/21 02:07:56;;;;;;;19.17;10.05;;;4.30;75.20;;;;;;5073886;28;20028;-71
2021/01/21 02:10:22;;;;;;;18.80;10.27;;;4.30;75.40;;;;;;5091837;28;20032;-72
2021/01/21 02:12:51;;;;;;;18.02;9.95;;;4.20;75.40;;;;;;5091709;28;20111;-71
2021/01/21 02:15:43;;;;;;;17.52;11.10;;;4.20;75.70;;;;;;5092213;28;20055;-71
2021/01/21 02:18:23;;;;;;;18.30;10.57;;;4.20;75.70;;;;;;5092058;28;20411;-70
2021/01/21 02:20:57;;;;;;;15.88;9.80;;;4.10;75.80;;;;;;5091348;28;20058;-69
2021/01/21 02:23:42;;;;;;;19.30;10.90;;;4.20;75.80;;;;;;5074567;28;20086;-70
2021/01/21 02:26:18;;;;;;;16.50;9.70;;;4.10;75.70;;;;;;5095052;28;20025;-70
2021/01/21 02:29:11;;;;;;;18.65;9.95;;;4.20;75.60;;;;;;5091027;28;20035;-71
2021/01/21 02:31:49;;;;;;;18.02;9.93;;;4.20;75.80;;;;;;5106120;28;20028;-70
2021/01/21 02:34:45;;;;;;;18.58;10.25;;;4.10;75.70;;;;;;5079918;28;20493;-70
2021/01/21 02:37:25;;;;;;;16.73;9.57;;;4.10;76.20;;;;;;5093026;28;20028;-71
2021/01/21 02:39:53;;;;;;;19.27;10.93;;;4.20;75.90;;;;;;5092859;28;20035;-70
2021/01/21 02:42:19;;;;;;;16.58;10.10;;;4.10;76.20;;;;;;5092530;28;20016;-71
2021/01/21 02:44:45;;;;;;;16.92;10.82;;;4.10;76.20;;;;;;5092476;28;20032;-70
2021/01/21 02:47:14;;;;;;;17.95;10.73;;;4.10;76.40;;;;;;5091948;28;20063;-71
2021/01/21 02:49:41;;;;;;;17.88;11.02;;;4.10;76.30;;;;;;5072655;28;20025;-71
2021/01/21 02:52:24;;;;;;;20.20;12.13;;;4.20;76.20;;;;;;5071843;28;20032;-71
2021/01/21 02:54:50;;;;;;;18.48;10.55;;;4.10;76.20;;;;;;5071495;28;20032;-70
2021/01/21 02:57:47;;;;;;;19.20;10.90;;;4.20;76.10;;;;;;5071668;28;20025;-71
2021/01/21 03:00:13;;;;;;;18.35;10.05;;;4.20;76.80;;;;;;5095810;22;20151;-68
2021/01/21 03:02:44;;;;;;;18.38;11.00;;;4.20;76.10;;;;;;5070736;28;20126;-69
2021/01/21 03:05:13;;;;;;;17.58;10.73;;;4.20;75.80;;;;;;5053781;28;20027;-67
2021/01/21 03:07:40;;;;;;;16.45;10.25;;;4.20;75.70;;;;;;5053579;28;20427;-69
2021/01/21 03:10:10;;;;;;;19.25;10.63;;;4.30;75.60;;;;;;5071842;28;20028;-67
2021/01/21 03:12:36;;;;;;;19.70;10.65;;;4.30;75.80;;;;;;5071821;28;20032;-67
2021/01/21 03:15:05;;;;;;;18.90;10.18;;;4.40;75.20;;;;;;5071676;28;20032;-66
2021/01/21 03:17:31;;;;;;;17.42;10.40;;;4.40;74.90;;;;;;5053528;28;20029;-68
2021/01/21 03:19:57;;;;;;;14.95;9.75;;;4.50;74.70;;;;;;5054000;28;20028;-67
2021/01/21 03:22:22;;;;;;;16.95;10.07;;;4.50;74.50;;;;;;5071570;28;20017;-67
2021/01/21 03:24:48;;;;;;;18.27;9.40;;;4.60;74.40;;;;;;5053303;28;20025;-67
2021/01/21 03:27:14;;;;;;;17.13;9.15;;;4.50;74.00;;;;;;5073758;28;20032;-68
2021/01/21 03:29:42;;;;;;;14.68;8.75;;;4.70;73.50;;;;;;5057515;28;20071;-67
2021/01/21 03:32:07;;;;;;;15.38;8.98;;;4.70;73.30;;;;;;5075578;28;20025;-66
2021/01/21 03:34:33;;;;;;;15.50;8.70;;;4.70;73.30;;;;;;5074514;28;20027;-68
2021/01/21 03:36:59;;;;;;;16.40;9.70;;;4.80;72.80;;;;;;5075150;28;20020;-67
2021/01/21 03:39:24;;;;;;;16.75;9.48;;;4.80;72.40;;;;;;5074632;28;20443;-67
2021/01/21 03:41:51;;;;;;;16.55;9.27;;;4.90;72.20;;;;;;5074907;28;20036;-67
2021/01/21 03:44:17;;;;;;;17.67;9.98;;;4.90;72.10;;;;;;5074991;28;20028;-68
2021/01/21 03:46:43;;;;;;;18.58;10.85;;;4.90;72.30;;;;;;5074814;28;20143;-67
2021/01/21 03:49:09;;;;;;;16.42;8.95;;;4.90;72.40;;;;;;5069139;28;20507;-68
2021/01/21 03:51:35;;;;;;;18.08;9.23;;;4.90;72.30;;;;;;5075297;28;20032;-68
2021/01/21 03:54:03;;;;;;;16.00;10.32;;;4.90;72.40;;;;;;5075122;28;20028;-67
2021/01/21 03:56:29;;;;;;;16.08;9.60;;;4.90;72.50;;;;;;5074787;28;20053;-67
2021/01/21 03:58:54;;;;;;;14.98;8.95;;;4.90;72.40;;;;;;5074962;28;20034;-68
2021/01/21 04:01:20;;;;;;;14.55;9.10;;;4.80;72.10;;;;;;5056867;28;20400;-67
2021/01/21 04:03:45;;;;;;;12.77;7.72;;;4.90;72.00;;;;;;5057257;28;20504;-67
2021/01/21 04:06:11;;;;;;;13.80;8.80;;;4.90;71.60;;;;;;5074843;28;20433;-67
2021/01/21 04:08:37;;;;;;;14.85;8.20;;;4.90;71.40;;;;;;5074878;28;20028;-67
2021/01/21 04:11:03;;;;;;;12.45;7.70;;;4.90;70.80;;;;;;5074566;28;20023;-67
2021/01/21 04:13:28;;;;;;;13.35;7.72;;;5.00;71.00;;;;;;5074854;28;20024;-68
2021/01/21 04:15:54;;;;;;;13.35;7.70;;;4.90;71.00;;;;;;5074479;28;20059;-67
2021/01/21 04:18:20;;;;;;;13.32;8.35;;;5.00;70.50;;;;;;5074124;28;20024;-68
2021/01/21 04:20:45;;;;;;;14.57;8.52;;;5.00;70.40;;;;;;5074345;28;20075;-68
2021/01/21 04:23:11;;;;;;;16.10;9.35;;;5.00;70.60;;;;;;5074352;28;20060;-66
2021/01/21 04:25:37;;;;;;;18.00;9.18;;;4.90;71.10;;;;;;5074155;28;20032;-67
2021/01/21 04:28:03;;;;;;;16.40;9.85;;;4.80;71.70;;;;;;5073946;28;20025;-67
2021/01/21 04:30:29;;;;;;;17.95;10.93;;;4.70;72.40;;;;;;5074304;28;20024;-67
2021/01/21 04:32:55;;;;;;;16.95;10.05;;;4.60;72.50;;;;;;5056083;28;20037;-67
2021/01/21 04:35:20;;;;;;;16.10;10.02;;;4.60;72.70;;;;;;5074243;28;20073;-67
2021/01/21 04:37:46;;;;;;;16.63;10.63;;;4.50;73.00;;;;;;5056363;28;20025;-67
2021/01/21 04:40:12;;;;;;;18.65;10.10;;;4.50;73.10;;;;;;5074546;28;20090;-67
2021/01/21 04:42:38;;;;;;;17.35;9.88;;;4.60;72.60;;;;;;5056464;28;20094;-67
2021/01/21 04:45:05;;;;;;;14.23;8.52;;;4.60;72.40;;;;;;5056183;28;20106;-68
2021/01/21 04:47:31;;;;;;;13.70;9.15;;;4.70;71.80;;;;;;5055741;28;20024;-67
2021/01/21 04:49:59;;;;;;;18.90;10.77;;;4.70;71.80;;;;;;5073879;28;20477;-67
2021/01/21 04:52:26;;;;;;;17.45;10.95;;;4.70;71.90;;;;;;5055858;28;20039;-67
2021/01/21 04:54:57;;;;;;;20.20;11.48;;;4.60;72.40;;;;;;5055606;28;20029;-67
2021/01/21 04:57:45;;;;;;;19.67;11.35;;;4.50;73.00;;;;;;5055598;28;20016;-67
2021/01/21 05:00:11;;;;;;;18.52;11.13;;;4.40;73.40;;;;;;5073465;28;20048;-68
2021/01/21 05:02:40;;;;;;;18.08;11.20;;;4.30;73.70;;;;;;5055777;28;20024;-65
2021/01/21 05:05:10;;;;;;;19.83;11.63;;;4.20;74.10;;;;;;5055414;28;20047;-66
2021/01/21 05:07:39;;;;;;;19.42;12.13;;;4.10;74.50;;;;;;5073783;28;20451;-68
2021/01/21 05:10:07;;;;;;;20.08;11.27;;;4.10;74.40;;;;;;5073299;28;20115;-68
2021/01/21 05:12:32;;;;;;;16.60;10.80;;;4.10;74.40;;;;;;5073107;28;20024;-68
2021/01/21 05:14:59;;;;;;;19.77;11.50;;;4.10;74.40;;;;;;5055491;28;20028;-67
2021/01/21 05:17:25;;;;;;;19.77;11.45;;;4.10;74.60;;;;;;5073079;28;20028;-66
2021/01/21 05:19:52;;;;;;;16.38;10.63;;;4.00;74.60;;;;;;5073377;28;20410;-67
2021/01/21 05:22:19;;;;;;;18.73;10.93;;;4.00;74.50;;;;;;5073572;28;20016;-68
2021/01/21 05:24:45;;;;;;;19.50;10.43;;;4.10;75.20;;;;;;5073182;28;20039;-67
2021/01/21 05:27:13;;;;;;;19.20;11.55;;;4.10;74.80;;;;;;5072749;28;20088;-67
2021/01/21 05:29:43;;;;;;;18.73;11.77;;;4.10;74.20;;;;;;5072646;28;20024;-67
2021/01/21 05:32:10;;;;;;;16.83;10.80;;;4.20;73.80;;;;;;5072451;28;20028;-66
2021/01/21 05:34:35;;;;;;;17.20;9.73;;;4.20;73.70;;;;;;5072331;28;20029;-66
2021/01/21 05:37:02;;;;;;;17.30;10.10;;;4.20;73.40;;;;;;5072281;28;20099;-66
2021/01/21 05:39:44;;;;;;;16.50;10.23;;;4.30;73.10;;;;;;5054477;28;20032;-66
2021/01/21 05:42:11;;;;;;;14.30;9.73;;;4.40;72.60;;;;;;5054356;28;20127;-66
2021/01/21 05:44:37;;;;;;;16.52;10.25;;;4.40;72.20;;;;;;5072314;28;20435;-66
2021/01/21 05:47:09;;;;;;;14.90;10.23;;;4.50;71.50;;;;;;5054080;28;20025;-66
2021/01/21 05:49:36;;;;;;;16.58;10.80;;;4.60;71.40;;;;;;5070726;28;20036;-65
2021/01/21 05:52:02;;;;;;;20.75;12.38;;;4.60;71.40;;;;;;5072059;28;20056;-65
2021/01/21 05:54:29;;;;;;;20.77;12.27;;;4.60;71.40;;;;;;5071780;28;20028;-66
2021/01/21 05:57:00;;;;;;;20.95;12.13;;;4.60;71.60;;;;;;5071838;28;20043;-65
2021/01/21 05:59:29;;;;;;;19.25;12.57;;;4.60;71.30;;;;;;5053985;28;20028;-66
2021/01/21 06:01:56;;;;;;;19.02;12.07;;;4.60;71.40;;;;;;5072012;28;20484;-66
2021/01/21 06:04:28;;;;;;;22.17;12.75;;;4.60;71.50;;;;;;5071940;28;20032;-66
2021/01/21 06:06:54;;;;;;;19.17;11.80;;;4.60;71.70;;;;;;5053506;28;20468;-66
2021/01/21 06:09:30;;;;;;;19.05;11.18;;;4.60;71.70;;;;;;5071753;28;20067;-67
2021/01/21 06:12:02;;;;;;;20.40;11.38;;;4.60;71.50;;;;;;5071851;28;20100;-66
2021/01/21 06:14:29;;;;;;;15.95;10.18;;;4.70;70.40;;;;;;5071092;28;20028;-66
2021/01/21 06:16:55;;;;;;;17.50;11.32;;;4.80;69.90;;;;;;5070915;28;20025;-67
2021/01/21 06:19:21;;;;;;;18.77;11.98;;;4.90;69.60;;;;;;5071600;28;20363;-66
2021/01/21 06:21:50;;;;;;;19.48;11.70;;;4.90;69.40;;;;;;5071572;28;20091;-66
2021/01/21 06:24:18;;;;;;;20.02;12.25;;;4.90;69.40;;;;;;5053885;28;20054;-65
2021/01/21 06:26:51;;;;;;;19.95;13.00;;;4.90;69.80;;;;;;5053141;28;20086;-65
2021/01/21 06:29:18;;;;;;;20.85;13.85;;;4.90;69.80;;;;;;5071472;28;20017;-67
2021/01/21 06:31:48;;;;;;;21.52;13.57;;;4.80;70.20;;;;;;5071959;28;20024;-67
2021/01/21 06:34:33;;;;;;;20.35;13.25;;;4.80;70.40;;;;;;5053629;28;20028;-67
2021/01/21 06:37:16;;;;;;;20.08;13.63;;;4.70;71.00;;;;;;5071044;28;20436;-67
2021/01/21 06:40:01;;;;;;;21.20;13.73;;;4.60;71.20;;;;;;5071193;28;20021;-66
2021/01/21 06:42:29;;;;;;;22.65;13.70;;;4.50;71.70;;;;;;5071200;28;20037;-67
2021/01/21 06:44:59;;;;;;;21.98;14.23;;;4.50;71.70;;;;;;5071270;28;20032;-67
2021/01/21 06:47:25;;;;;;;22.50;14.48;;;4.50;71.70;;;;;;5071075;28;20028;-66
2021/01/21 06:50:02;;;;;;;25.77;14.32;;;4.50;71.80;;;;;;5052970;28;20486;-66
2021/01/21 06:52:37;;;;;;;23.90;14.43;;;4.30;72.20;;;;;;5071159;28;20020;-67
2021/01/21 06:55:07;;;;;;;25.30;15.82;;;4.30;72.30;;;;;;5071515;28;20039;-67
2021/01/21 06:57:36;;;;;;;25.08;15.55;;;4.30;72.40;;;;;;5053079;28;20494;-66
2021/01/21 07:00:34;;;;;;;24.92;13.80;;;4.30;72.50;;;;;;5070685;28;20390;-66
2021/01/21 07:03:00;;;;;;;25.75;14.93;;;4.30;72.20;;;;;;5028047;28;20522;-67
2021/01/21 07:05:26;;;;;;;22.38;14.45;;;4.30;72.70;;;;;;5055875;28;20075;-65
2021/01/21 07:08:00;;;;;;;26.77;16.30;;;4.30;72.30;;;;;;5074952;28;20027;-67
2021/01/21 07:10:47;;;;;;;22.55;14.55;;;4.30;72.50;;;;;;5057258;28;20021;-66
2021/01/21 07:13:16;;;;;;;23.65;14.82;;;4.30;72.50;;;;;;5056704;28;20032;-67
2021/01/21 07:15:45;;;;;;;26.02;16.52;;;4.30;72.80;;;;;;5075155;28;20470;-65
2021/01/21 07:18:14;;;;;;;26.30;15.05;;;4.20;72.70;;;;;;5056908;28;20028;-67
2021/01/21 07:20:59;;;;;;;23.98;15.43;;;4.30;72.70;;;;;;5040261;28;20120;-67
2021/01/21 07:23:50;;;;;;;24.25;14.45;;;4.30;72.60;;;;;;5057235;28;20094;-67
2021/01/21 07:26:35;;;;;;;22.95;13.85;;;4.30;72.50;;;;;;5063511;28;20060;-67
2021/01/21 07:29:06;;;;;;;26.58;15.43;;;4.30;72.40;;;;;;5074839;28;20021;-66
2021/01/21 07:31:50;;;;;;;22.45;13.77;;;4.30;72.10;;;;;;5074714;28;20024;-65
2021/01/21 07:34:47;;;;;;;21.38;14.25;;;4.40;72.10;;;;;;5074869;28;20024;-66
2021/01/21 07:37:44;;;;;;;22.42;14.40;;;4.40;72.00;;;;;;5074408;28;20016;-66
2021/01/21 07:40:11;;;;;;;24.45;15.07;;;4.50;72.10;;;;;;5056424;28;20020;-66
2021/01/21 07:42:38;;;;;;;20.02;13.15;;;4.50;72.00;;;;;;5056502;28;20741;-64
2021/01/21 07:45:06;;;;;;;22.05;13.10;;;4.50;71.80;;;;;;5074018;28;20032;-66
2021/01/21 07:47:39;;;;;;;19.63;12.65;;;4.50;71.60;;;;;;5073398;28;20074;-65
2021/01/21 07:50:22;;;;;;;17.83;12.40;;;4.70;71.10;;;;;;5074369;28;20028;-66
2021/01/21 07:52:49;;;;;;;20.60;13.30;;;4.80;70.10;;;;;;5074452;28;20043;-67
2021/01/21 07:55:27;;;;;;;19.52;12.18;;;4.80;70.20;;;;;;5056239;28;20028;-66
2021/01/21 07:57:53;;;;;;;21.13;13.73;;;4.90;69.90;;;;;;5074497;28;20033;-65
2021/01/21 08:00:19;;;;;;;18.23;11.82;;;5.00;70.00;;;;;;5074370;28;20032;-65
2021/01/21 08:02:50;;;;;;;19.92;12.48;;;5.00;69.70;;;;;;5075264;28;20025;-66
2021/01/21 08:05:23;;;;;;;18.48;11.75;;;5.10;68.90;;;;;;5057185;28;20032;-65
2021/01/21 08:07:57;;;;;;;20.08;12.82;;;5.10;68.60;;;;;;5055171;28;20048;-65
2021/01/21 08:10:28;;;;;;;20.63;12.77;;;5.20;68.40;;;;;;5057399;28;20487;-66
2021/01/21 08:12:59;;;;;;;16.75;11.80;;;5.20;68.20;;;;;;5061882;28;20032;-65
2021/01/21 08:15:27;;;;;;;18.98;12.65;;;5.10;68.70;;;;;;5074228;28;20032;-64
2021/01/21 08:17:54;;;;;;;19.83;12.63;;;5.10;68.90;;;;;;5073816;28;20017;-65
2021/01/21 08:20:30;;;;;;;23.10;12.88;;;5.20;68.60;;;;;;5058200;28;20025;-65
2021/01/21 08:22:59;;;;;;;21.90;12.55;;;5.10;68.70;;;;;;5054418;28;20160;-66
2021/01/21 08:25:39;;;;;;;21.00;12.75;;;5.10;69.10;;;;;;5054480;28;20025;-65
2021/01/21 08:28:19;;;;;;;20.02;13.10;;;5.10;69.30;;;;;;5045494;28;20047;-65
2021/01/21 08:30:46;;;;;;;17.05;11.95;;;5.10;69.40;;;;;;5074534;28;20035;-66
2021/01/21 08:33:18;;;;;;;17.75;12.23;;;5.00;69.60;;;;;;5073897;28;20016;-65
2021/01/21 08:35:56;;;;;;;20.20;12.30;;;5.00;69.70;;;;;;5073786;28;20020;-66
2021/01/21 08:38:32;;;;;;;17.10;11.43;;;5.00;69.30;;;;;;5073811;28;20047;-66
2021/01/21 08:40:58;;;;;;;18.65;12.52;;;5.00;69.50;;;;;;5055504;28;20027;-67
2021/01/21 08:43:25;;;;;;;20.48;13.63;;;5.10;68.80;;;;;;5073430;28;20039;-65
2021/01/21 08:45:54;;;;;;;20.30;12.32;;;5.20;69.10;;;;;;5040527;28;20398;-66
2021/01/21 08:48:31;;;;;;;17.40;11.82;;;5.30;68.30;;;;;;5042041;28;20138;-65
2021/01/21 08:50:58;;;;;;;18.92;12.15;;;5.50;67.60;;;;;;5073323;28;20017;-66
2021/01/21 08:53:25;;;;;;;20.85;12.55;;;5.60;67.00;;;;;;5072133;28;20034;-67
2021/01/21 08:55:53;;;;;;;17.52;11.40;;;5.70;66.70;;;;;;5073257;28;20428;-67
2021/01/21 08:58:26;;;;;;;19.90;12.13;;;5.90;66.60;;;;;;5073632;28;20024;-68
2021/01/21 09:01:03;;;;;;;16.92;11.45;;;6.00;67.10;;;;;;5081095;22;20049;-70
2021/01/21 09:03:45;;;;;;;16.35;10.98;;;6.10;66.60;;;;;;5051686;28;20029;-69
2021/01/21 09:06:12;;;;;;;17.33;10.80;;;6.20;65.30;;;;;;5052834;28;20526;-69
2021/01/21 09:08:56;;;;;;;14.82;10.88;;;6.20;65.40;;;;;;5052902;28;20033;-69
2021/01/21 09:11:27;;;;;;;15.98;10.40;;;6.30;65.60;;;;;;5053311;28;20059;-69
2021/01/21 09:13:52;;;;;;;15.93;10.10;;;6.30;64.50;;;;;;5053032;28;20458;-69
2021/01/21 09:16:18;;;;;;;17.05;11.85;;;6.40;64.60;;;;;;5052343;28;20036;-70
2021/01/21 09:18:47;;;;;;;17.40;11.52;;;6.40;65.00;;;;;;5052766;28;20024;-69
2021/01/21 09:21:14;;;;;;;19.65;11.88;;;6.50;64.80;;;;;;5052362;28;20043;-69
2021/01/21 09:23:40;;;;;;;25.45;16.02;;;6.60;64.50;;;;;;5052460;28;20087;-69
2021/01/21 09:26:11;;;;;;;43.78;25.00;;;6.50;64.20;;;;;;5053037;28;20377;-69
2021/01/21 09:28:54;;;;;;;30.35;17.10;;;6.50;63.60;;;;;;5052064;28;20025;-70
2021/01/21 09:31:26;;;;;;;22.10;13.65;;;6.50;63.50;;;;;;5031787;28;20037;-70
2021/01/21 09:33:52;;;;;;;28.05;18.02;;;6.60;63.70;;;;;;5032042;28;20033;-70
2021/01/21 09:36:25;;;;;;;28.17;17.40;;;6.60;63.30;;;;;;5032227;28;20540;-70
2021/01/21 09:38:51;;;;;;;19.50;12.30;;;6.60;63.30;;;;;;5036234;28;20052;-72
2021/01/21 09:41:21;;;;;;;28.65;16.50;;;6.70;62.30;;;;;;5036559;28;20495;-71
2021/01/21 09:43:47;;;;;;;26.75;15.90;;;6.70;63.00;;;;;;5033990;28;20029;-68
2021/01/21 09:46:13;;;;;;;28.92;16.05;;;6.70;63.40;;;;;;5034008;28;20025;-70
2021/01/21 09:48:39;;;;;;;21.70;13.07;;;6.70;63.10;;;;;;5035133;28;20033;-69
2021/01/21 09:51:04;;;;;;;22.15;13.75;;;6.70;62.90;;;;;;5041367;28;20021;-69
2021/01/21 09:53:30;;;;;;;33.10;17.60;;;6.70;62.70;;;;;;5071255;28;20024;-68
2021/01/21 09:55:56;;;;;;;26.67;15.38;;;6.80;63.70;;;;;;5072431;28;20028;-70
2021/01/21 09:58:27;;;;;;;25.63;15.80;;;6.70;63.00;;;;;;5073068;28;20023;-69
2021/01/21 10:00:53;;;;;;;18.60;11.45;;;6.80;63.20;;;;;;5075048;28;20421;-69
2021/01/21 10:03:19;;;;;;;23.52;13.75;;;6.90;61.40;;;;;;5070214;28;20082;-69
2021/01/21 10:05:47;;;;;;;17.65;11.55;;;6.90;61.70;;;;;;5068565;28;20528;-69
2021/01/21 10:08:15;;;;;;;15.60;10.13;;;7.00;61.40;;;;;;5051809;28;20025;-69
2021/01/21 10:10:41;;;;;;;18.00;11.98;;;7.10;60.70;;;;;;5051843;28;20262;-69
2021/01/21 10:13:06;;;;;;;18.90;11.43;;;7.10;60.80;;;;;;5051737;28;20033;-68
2021/01/21 10:15:32;;;;;;;20.50;10.45;;;7.10;60.60;;;;;;5052315;28;20053;-72
2021/01/21 10:17:58;;;;;;;16.40;10.85;;;7.20;60.60;;;;;;5052006;28;20028;-70
2021/01/21 10:20:23;;;;;;;18.15;11.23;;;7.30;59.80;;;;;;5065534;28;20021;-70
2021/01/21 10:22:49;;;;;;;20.20;11.95;;;7.40;60.00;;;;;;5072017;28;20024;-71
2021/01/21 10:25:15;;;;;;;13.18;8.45;;;7.50;59.80;;;;;;5071732;28;20102;-72
2021/01/21 10:27:41;;;;;;;23.77;13.10;;;7.80;56.80;;;;;;5071584;28;20039;-69
2021/01/21 10:30:07;;;;;;;12.45;7.18;;;8.20;57.30;;;;;;5071692;28;20046;-69
2021/01/21 10:32:34;;;;;;;10.90;6.55;;;8.60;54.40;;;;;;5070740;28;20543;-70
2021/01/21 10:35:02;;;;;;;12.18;7.05;;;8.90;52.40;;;;;;5071573;28;20027;-71
2021/01/21 10:37:30;;;;;;;11.32;6.30;;;9.20;51.50;;;;;;5071544;28;20389;-70
2021/01/21 10:39:56;;;;;;;9.20;5.22;;;9.50;50.90;;;;;;5071476;28;20063;-70
2021/01/21 10:42:21;;;;;;;12.45;5.60;;;9.70;48.60;;;;;;5071655;28;20053;-70
2021/01/21 10:44:47;;;;;;;11.73;7.30;;;9.90;48.50;;;;;;5070321;28;20427;-72
2021/01/21 10:47:13;;;;;;;10.43;6.15;;;10.10;49.30;;;;;;5072010;28;20030;-72
2021/01/21 10:49:38;;;;;;;10.43;6.95;;;10.20;46.50;;;;;;5054210;28;20063;-71
2021/01/21 10:52:04;;;;;;;27.52;14.10;;;10.30;46.90;;;;;;5050176;28;20029;-71
2021/01/21 10:54:30;;;;;;;12.90;8.35;;;10.50;48.30;;;;;;5051821;28;20031;-70
2021/01/21 10:56:55;;;;;;;12.93;7.90;;;10.70;45.70;;;;;;5071621;28;20383;-70
2021/01/21 10:59:21;;;;;;;20.67;12.52;;;10.70;46.30;;;;;;5071862;28;20070;-72
2021/01/21 11:01:47;;;;;;;8.93;4.90;;;10.70;47.40;;;;;;5071161;28;20032;-70
2021/01/21 11:04:13;;;;;;;13.98;8.63;;;10.70;44.80;;;;;;5068051;28;20291;-71
2021/01/21 11:06:39;;;;;;;8.13;4.75;;;10.60;47.10;;;;;;5064418;28;20021;-71
2021/01/21 11:09:05;;;;;;;8.52;5.40;;;10.50;45.20;;;;;;5069945;28;20041;-71
2021/01/21 11:11:31;;;;;;;11.60;7.53;;;10.50;46.90;;;;;;5071381;28;20090;-70
2021/01/21 11:13:57;;;;;;;7.88;5.28;;;10.60;47.10;;;;;;5069800;28;20025;-70
2021/01/21 11:16:22;;;;;;;8.10;5.30;;;10.70;45.20;;;;;;5071248;28;20505;-68
2021/01/21 11:18:48;;;;;;;10.00;5.22;;;11.00;44.90;;;;;;5071306;28;20017;-69
2021/01/21 11:21:14;;;;;;;14.90;8.77;;;11.20;44.80;;;;;;5071641;28;20017;-69
2021/01/21 11:23:39;;;;;;;8.40;4.88;;;11.50;45.30;;;;;;5071399;28;20028;-74
2021/01/21 11:26:05;;;;;;;10.02;5.78;;;11.70;44.40;;;;;;5070946;28;20477;-69
2021/01/21 11:28:31;;;;;;;9.05;5.25;;;11.80;44.10;;;;;;5070244;28;20124;-69
2021/01/21 11:30:57;;;;;;;11.25;5.50;;;11.90;43.50;;;;;;5069879;28;20025;-70
2021/01/21 11:33:22;;;;;;;6.70;3.78;;;12.00;43.50;;;;;;5071064;28;20028;-70
2021/01/21 11:35:51;;;;;;;16.60;8.57;;;12.00;43.30;;;;;;5070938;28;20028;-71
2021/01/21 11:38:17;;;;;;;21.65;11.13;;;12.00;42.30;;;;;;5069741;28;20017;-68
2021/01/21 11:40:44;;;;;;;17.23;7.25;;;12.00;42.60;;;;;;5070813;28;20027;-69
2021/01/21 11:43:10;;;;;;;36.58;18.52;;;11.90;42.50;;;;;;5071052;28;20394;-67
2021/01/21 11:45:36;;;;;;;27.05;14.00;;;11.90;43.60;;;;;;5071249;28;20036;-71
2021/01/21 11:48:02;;;;;;;16.15;7.80;;;12.00;44.20;;;;;;5068693;28;20057;-71
2021/01/21 11:50:28;;;;;;;13.40;6.55;;;12.00;43.00;;;;;;5053340;28;20025;-70
2021/01/21 11:52:55;;;;;;;36.35;17.80;;;12.10;43.30;;;;;;5054782;28;20394;-69
2021/01/21 11:55:22;;;;;;;22.77;12.43;;;12.30;44.10;;;;;;5054671;28;20122;-70
2021/01/21 11:57:48;;;;;;;47.38;23.88;;;12.50;43.30;;;;;;5055785;28;20025;-69
2021/01/21 12:00:14;;;;;;;31.35;16.45;;;12.70;44.60;;;;;;5056627;28;20488;-70
2021/01/21 12:02:40;;;;;;;9.57;5.28;;;12.90;43.00;;;;;;5058457;28;20017;-70
2021/01/21 12:05:08;;;;;;;7.45;4.90;;;12.90;41.90;;;;;;5053557;28;20029;-70
2021/01/21 12:07:33;;;;;;;19.45;9.27;;;12.80;41.00;;;;;;5043505;28;20033;-73
2021/01/21 12:09:59;;;;;;;19.73;9.65;;;12.70;42.00;;;;;;5064937;28;20090;-69
2021/01/21 12:12:25;;;;;;;16.85;8.77;;;12.60;41.50;;;;;;5065031;28;20060;-70
2021/01/21 12:14:50;;;;;;;17.33;9.90;;;12.60;42.20;;;;;;5074297;28;20028;-69
2021/01/21 12:17:16;;;;;;;24.17;13.27;;;12.70;42.60;;;;;;5073464;28;20025;-71
2021/01/21 12:19:43;;;;;;;23.95;12.00;;;12.70;42.30;;;;;;5060682;28;20028;-70
2021/01/21 12:22:09;;;;;;;35.90;18.63;;;12.80;42.00;;;;;;5053926;28;20017;-70
2021/01/21 12:24:35;;;;;;;14.95;8.65;;;12.80;43.80;;;;;;5053838;28;20036;-70
2021/01/21 12:27:00;;;;;;;16.23;8.25;;;12.80;41.90;;;;;;5053260;28;20542;-70
2021/01/21 12:29:28;;;;;;;18.23;8.82;;;12.60;42.20;;;;;;5052428;28;20056;-70
2021/01/21 12:31:54;;;;;;;11.55;7.10;;;12.60;42.50;;;;;;5053647;28;20028;-70
2021/01/21 12:34:20;;;;;;;7.18;4.43;;;12.50;42.50;;;;;;5053395;28;20033;-70
2021/01/21 12:36:45;;;;;;;4.95;3.65;;;12.40;42.30;;;;;;5053288;28;20076;-70
2021/01/21 12:39:11;;;;;;;6.38;4.60;;;12.20;42.50;;;;;;5053811;28;20147;-70
2021/01/21 12:41:36;;;;;;;7.70;3.80;;;12.10;42.80;;;;;;5053428;28;20392;-72
2021/01/21 12:44:02;;;;;;;13.25;7.35;;;12.00;42.70;;;;;;5053454;28;20025;-71
2021/01/21 12:46:28;;;;;;;19.05;10.50;;;12.00;43.90;;;;;;5053105;28;20110;-69
2021/01/21 12:48:59;;;;;;;21.73;11.45;;;12.00;44.30;;;;;;5041491;28;20104;-71